Dora Bend, Louisiana
Current Conditions -  °F | °C
As of 8:55 PM on Friday 19 Dec 2014 (Local Time) from KOPL Reporting Station
Overcast Overcast  
Wind Chill: 46°   Ceiling: 600
Heat Index: 48°   Visibility: 10mi
Dew Point: 47°   Wind: 6mph
Humidity: 95%   Direction: 70°ENE
Pressure: 30.09"   Gusts: NA
Location:  30.9908°N, 92.0816°W
Report Text: KOPL 200255Z AUTO 07005KT 10SM OVC006 09/08 A3009 RMK AO2 P0001 60004 T00900082
Loading
Personal Weather Stations






























Interactive Weather Map New forecast layout! Learn more

10-Day Weather Forecast

Advertisements
Track Severe Weather on mobile